Time;durP1;ratioP1;P1;durP2;ratioP2;P2;SDS_P1;SDS_P2;PMS_P1;PMS_P2;Temp;Humidity;BMP_temperature;BMP_pressure;BME280_temperature;BME280_humidity;BME280_pressure;Samples;Min_cycle;Max_cycle;Signal;HPM_P1;HPM_P2
2021/10/06 00:01:22;;;;;;;10.57;2.35;;;;;;;10.32;90.05;100547.31;5054958;28;20025;-68
2021/10/06 00:03:48;;;;;;;8.15;2.30;;;;;;;10.36;89.73;100551.94;5054289;28;20395;-68
2021/10/06 00:06:13;;;;;;;7.55;2.10;;;;;;;10.37;89.71;100555.31;5054152;28;20430;-68
2021/10/06 00:08:38;;;;;;;8.40;2.30;;;;;;;10.41;89.46;100545.38;5053961;28;20021;-68
2021/10/06 00:11:04;;;;;;;8.43;2.00;;;;;;;10.51;89.91;100561.34;5054103;28;20510;-67
2021/10/06 00:13:29;;;;;;;6.88;2.45;;;;;;;10.48;89.54;100557.34;5054209;28;20035;-67
2021/10/06 00:15:54;;;;;;;9.05;2.40;;;;;;;10.41;89.54;100546.16;5036065;28;20046;-68
2021/10/06 00:18:22;;;;;;;8.00;2.15;;;;;;;10.46;89.85;100561.91;5054075;28;20060;-68
2021/10/06 00:20:47;;;;;;;7.13;2.08;;;;;;;10.51;89.59;100554.38;5053974;28;20036;-68
2021/10/06 00:23:12;;;;;;;9.40;2.20;;;;;;;10.52;89.63;100561.13;5053855;28;20349;-68
2021/10/06 00:25:38;;;;;;;9.05;2.30;;;;;;;10.50;89.68;100564.88;5053950;28;20029;-68
2021/10/06 00:28:03;;;;;;;6.88;2.20;;;;;;;10.55;89.42;100563.34;5053902;28;20024;-68
2021/10/06 00:30:29;;;;;;;8.48;2.60;;;;;;;10.57;89.73;100561.34;5054105;28;20467;-68
2021/10/06 00:32:54;;;;;;;11.80;2.53;;;;;;;10.60;89.34;100567.94;5053583;28;20020;-68
2021/10/06 00:35:19;;;;;;;8.93;2.40;;;;;;;10.71;89.22;100561.44;5053277;28;20040;-68
2021/10/06 00:37:45;;;;;;;9.02;2.15;;;;;;;10.68;88.85;100561.81;5053258;28;20053;-68
2021/10/06 00:40:10;;;;;;;10.88;2.35;;;;;;;10.67;89.29;100555.81;5053277;28;20111;-68
2021/10/06 00:42:38;;;;;;;11.95;2.53;;;;;;;10.70;89.57;100563.19;5053155;28;20021;-68
2021/10/06 00:45:04;;;;;;;8.55;2.60;;;;;;;10.68;89.77;100567.78;5035374;28;20040;-69
2021/10/06 00:47:30;;;;;;;10.70;2.50;;;;;;;10.74;89.79;100579.94;5053109;28;20055;-68
2021/10/06 00:49:55;;;;;;;9.43;2.53;;;;;;;10.75;89.85;100578.94;5053171;28;20107;-69
2021/10/06 00:52:21;;;;;;;9.07;2.72;;;;;;;10.68;90.04;100572.94;5052567;28;20468;-69
2021/10/06 00:54:46;;;;;;;9.18;3.10;;;;;;;10.75;90.47;100570.38;5053052;28;20044;-69
2021/10/06 00:57:12;;;;;;;6.32;2.58;;;;;;;10.65;90.55;100572.53;5035112;28;20043;-68
2021/10/06 00:59:37;;;;;;;9.43;2.95;;;;;;;10.66;90.65;100582.66;5053060;28;20027;-68
2021/10/06 01:02:04;;;;;;;12.25;3.45;;;;;;;10.66;90.74;100584.47;5053035;28;20032;-69
2021/10/06 01:04:31;;;;;;;9.52;2.80;;;;;;;10.63;90.93;100587.44;5052870;28;20456;-69
2021/10/06 01:06:57;;;;;;;8.57;3.13;;;;;;;10.63;90.71;100579.69;5035097;28;20162;-69
2021/10/06 01:09:27;;;;;;;11.52;3.47;;;;;;;10.74;90.50;100587.69;5053005;28;20486;-68
2021/10/06 01:11:52;;;;;;;13.43;3.35;;;;;;;10.63;90.58;100592.59;5035009;28;20028;-69
2021/10/06 01:14:18;;;;;;;8.02;2.90;;;;;;;10.71;90.26;100595.81;5052854;28;20021;-69
2021/10/06 01:16:43;;;;;;;8.80;2.60;;;;;;;10.76;90.91;100582.31;5052850;28;20032;-68
2021/10/06 01:19:23;;;;;;;11.25;2.83;;;;;;;10.83;89.77;100580.56;5035035;28;20017;-69
2021/10/06 01:21:50;;;;;;;8.85;2.70;;;;;;;10.84;90.25;100588.09;5035040;28;20029;-68
2021/10/06 01:24:15;;;;;;;10.15;3.10;;;;;;;10.82;90.28;100590.09;5052704;28;20021;-68
2021/10/06 01:26:41;;;;;;;12.50;2.63;;;;;;;10.77;89.91;100582.13;5052862;28;20036;-69
2021/10/06 01:29:06;;;;;;;12.20;2.42;;;;;;;10.86;90.04;100585.34;5052793;28;20025;-69
2021/10/06 01:31:31;;;;;;;8.50;2.15;;;;;;;10.84;89.78;100584.72;5052771;28;20398;-68
2021/10/06 01:33:57;;;;;;;9.57;1.95;;;;;;;10.81;90.02;100591.06;5052645;28;20056;-68
2021/10/06 01:36:23;;;;;;;12.73;1.73;;;;;;;10.77;90.03;100594.25;5052767;28;20021;-68
2021/10/06 01:38:48;;;;;;;9.40;1.50;;;;;;;10.76;89.12;100590.88;5052731;28;20105;-68
2021/10/06 01:41:13;;;;;;;8.30;1.60;;;;;;;10.77;89.40;100591.66;5052686;28;20403;-68
2021/10/06 01:43:39;;;;;;;3.78;1.30;;;;;;;10.74;88.34;100590.25;5052729;28;20133;-69
2021/10/06 01:46:04;;;;;;;7.13;1.55;;;;;;;10.68;88.87;100606.53;5052524;28;20029;-68
2021/10/06 01:48:29;;;;;;;4.72;1.08;;;;;;;10.60;88.26;100611.88;5052561;28;20029;-68
2021/10/06 01:50:55;;;;;;;6.93;1.08;;;;;;;10.64;88.14;100602.72;5034709;28;20029;-69
2021/10/06 01:53:20;;;;;;;5.25;1.08;;;;;;;10.65;87.87;100601.75;5052220;28;20095;-68
2021/10/06 01:55:46;;;;;;;10.43;1.20;;;;;;;10.64;87.92;100601.94;5052857;28;20043;-68
2021/10/06 01:58:15;;;;;;;7.88;1.00;;;;;;;10.65;87.61;100609.50;5052375;28;20045;-68
2021/10/06 02:00:43;;;;;;;7.78;1.23;;;;;;;10.58;88.45;100608.66;5052504;28;20044;-68
2021/10/06 02:03:08;;;;;;;7.63;1.50;;;;;;;10.47;88.60;100607.44;5034456;28;20368;-68
2021/10/06 02:05:33;;;;;;;4.15;1.00;;;;;;;10.42;88.41;100602.03;5038498;28;20090;-69
2021/10/06 02:08:01;;;;;;;8.30;1.67;;;;;;;10.46;88.46;100603.22;5038278;28;20029;-68
2021/10/06 02:10:26;;;;;;;4.45;1.20;;;;;;;10.47;88.45;100611.78;5056515;28;20063;-68
2021/10/06 02:12:52;;;;;;;4.18;1.10;;;;;;;10.48;88.31;100605.63;5056442;28;20083;-68
2021/10/06 02:15:17;;;;;;;4.18;1.15;;;;;;;10.47;87.58;100601.44;5056465;28;20082;-69
2021/10/06 02:17:42;;;;;;;4.82;0.73;;;;;;;10.49;87.66;100600.28;5056348;28;20059;-68
2021/10/06 02:20:08;;;;;;;3.90;0.85;;;;;;;10.44;87.19;100604.41;5056569;28;20028;-68
2021/10/06 02:22:33;;;;;;;3.33;0.80;;;;;;;10.48;87.39;100608.22;5038389;28;20021;-68
2021/10/06 02:24:58;;;;;;;6.20;1.20;;;;;;;10.47;87.08;100601.44;5056178;28;20033;-68
2021/10/06 02:27:24;;;;;;;5.72;0.95;;;;;;;10.45;87.71;100608.59;5056145;28;20140;-68
2021/10/06 02:29:49;;;;;;;8.13;1.10;;;;;;;10.50;87.50;100599.31;5056071;28;20033;-67
2021/10/06 02:32:14;;;;;;;5.78;1.02;;;;;;;10.47;88.25;100598.84;5056136;28;20155;-68
2021/10/06 02:34:40;;;;;;;5.38;1.20;;;;;;;10.47;88.52;100598.84;5055987;28;20407;-69
2021/10/06 02:37:05;;;;;;;4.78;0.75;;;;;;;10.52;88.50;100599.88;5056623;28;20020;-68
2021/10/06 02:39:30;;;;;;;3.72;1.10;;;;;;;10.56;89.10;100595.94;5056008;28;20017;-68
2021/10/06 02:41:55;;;;;;;5.90;1.30;;;;;;;10.34;89.16;100590.06;5056174;28;20025;-68
2021/10/06 02:44:21;;;;;;;7.03;1.27;;;;;;;10.39;89.47;100610.97;5055819;28;20495;-68
2021/10/06 02:46:46;;;;;;;6.95;1.48;;;;;;;10.44;89.84;100605.19;5055905;28;20037;-68
2021/10/06 02:49:11;;;;;;;4.03;1.05;;;;;;;10.45;89.83;100608.59;5037973;28;20049;-68
2021/10/06 02:51:36;;;;;;;3.45;1.00;;;;;;;10.49;89.98;100607.22;5055730;28;20086;-68
2021/10/06 02:54:02;;;;;;;8.98;1.40;;;;;;;10.43;89.91;100613.94;5037627;28;20045;-68
2021/10/06 02:56:27;;;;;;;5.97;1.08;;;;;;;10.31;90.48;100600.78;5055654;28;20025;-68
2021/10/06 02:58:53;;;;;;;9.30;1.27;;;;;;;10.40;90.08;100604.00;5055603;28;20407;-68
2021/10/06 03:01:18;;;;;;;4.88;0.90;;;;;;;10.36;89.25;100610.53;5055564;28;20035;-68
2021/10/06 03:03:43;;;;;;;4.45;0.98;;;;;;;10.36;89.74;100602.78;5055443;28;20411;-69
2021/10/06 03:06:09;;;;;;;9.98;1.50;;;;;;;10.36;89.10;100605.38;5037563;28;20051;-68
2021/10/06 03:08:34;;;;;;;6.18;0.90;;;;;;;10.31;88.31;100605.94;5055449;28;20021;-69
2021/10/06 03:11:01;;;;;;;6.75;1.02;;;;;;;10.25;89.01;100604.06;5055337;28;20379;-69
2021/10/06 03:13:27;;;;;;;11.30;1.42;;;;;;;10.33;89.75;100614.28;5055407;28;20025;-69
2021/10/06 03:15:55;;;;;;;3.40;1.33;;;;;;;10.29;89.90;100618.22;5054790;28;20495;-68
2021/10/06 03:21:42;;;;;;;3.65;0.80;;;;;;;10.34;89.42;100613.31;5055570;28;20040;-68
2021/10/06 03:24:07;;;;;;;3.80;1.02;;;;;;;10.31;90.20;100616.25;5055089;28;20411;-68
2021/10/06 03:26:33;;;;;;;8.38;0.80;;;;;;;10.20;90.82;100632.25;5055422;28;20021;-69
2021/10/06 03:28:59;;;;;;;7.75;1.10;;;;;;;10.25;90.03;100629.91;5055027;28;20028;-68
2021/10/06 03:31:24;;;;;;;5.15;0.82;;;;;;;10.22;89.95;100632.06;5055036;28;20024;-68
2021/10/06 03:33:49;;;;;;;3.25;0.90;;;;;;;10.23;89.85;100631.88;5055204;28;20020;-68
2021/10/06 03:36:14;;;;;;;4.50;1.17;;;;;;;10.27;90.29;100637.47;5054903;28;20032;-68
2021/10/06 03:38:40;;;;;;;6.82;1.20;;;;;;;10.27;90.33;100638.31;5054930;28;20407;-68
2021/10/06 03:41:05;;;;;;;8.15;1.10;;;;;;;10.28;89.85;100639.09;5055343;28;20031;-68
2021/10/06 03:43:30;;;;;;;5.47;1.10;;;;;;;10.14;90.16;100633.78;5036775;28;20029;-68
2021/10/06 03:45:56;;;;;;;7.50;1.13;;;;;;;10.23;90.25;100639.63;5054729;28;20031;-68
2021/10/06 03:48:21;;;;;;;4.90;0.95;;;;;;;10.11;90.99;100634.16;5054709;28;20025;-69
2021/10/06 03:50:46;;;;;;;6.68;1.00;;;;;;;10.19;90.92;100635.03;5054939;28;20103;-68
2021/10/06 03:53:12;;;;;;;11.55;1.50;;;;;;;10.13;91.05;100639.16;5054355;28;20096;-68
2021/10/06 03:55:38;;;;;;;4.82;0.80;;;;;;;10.22;90.62;100640.63;5054609;28;20538;-67
2021/10/06 03:58:03;;;;;;;4.55;0.90;;;;;;;10.12;90.94;100635.75;5036642;28;20031;-66
2021/10/06 04:00:29;;;;;;;8.07;1.35;;;;;;;10.11;90.86;100636.75;5054363;28;20468;-68
2021/10/06 04:02:54;;;;;;;8.73;1.92;;;;;;;10.10;90.66;100640.31;5054576;28;20025;-67
2021/10/06 04:05:20;;;;;;;7.43;1.00;;;;;;;10.16;90.23;100631.03;5036534;28;20024;-70
2021/10/06 04:07:45;;;;;;;5.03;1.20;;;;;;;10.25;89.89;100618.78;5054244;28;20414;-69
2021/10/06 04:10:10;;;;;;;4.45;1.15;;;;;;;10.26;90.34;100628.91;5054314;28;20055;-67
2021/10/06 04:12:36;;;;;;;9.10;1.30;;;;;;;10.17;90.89;100637.78;5054168;28;20096;-68
2021/10/06 04:15:01;;;;;;;6.88;1.05;;;;;;;10.10;91.37;100629.22;5054169;28;20025;-68
2021/10/06 04:17:26;;;;;;;4.25;1.15;;;;;;;10.04;91.46;100625.59;5054099;28;20033;-68
2021/10/06 04:19:52;;;;;;;7.70;1.50;;;;;;;10.12;92.02;100629.78;5054155;28;20055;-68
2021/10/06 04:22:17;;;;;;;4.28;1.33;;;;;;;10.08;91.88;100626.00;5054553;28;20029;-68
2021/10/06 04:24:43;;;;;;;6.93;1.30;;;;;;;10.09;91.34;100625.81;5054165;28;20048;-68
2021/10/06 04:27:08;;;;;;;5.28;1.40;;;;;;;10.16;91.20;100623.28;5053147;28;20028;-67
2021/10/06 04:29:33;;;;;;;5.47;1.15;;;;;;;10.10;91.49;100611.13;5053820;28;20020;-68
2021/10/06 04:31:59;;;;;;;6.03;1.20;;;;;;;10.02;91.46;100622.38;5053958;28;20033;-69
2021/10/06 04:34:24;;;;;;;7.68;1.55;;;;;;;10.01;91.73;100620.81;5053759;28;20104;-68
2021/10/06 04:36:50;;;;;;;6.70;1.17;;;;;;;9.98;91.72;100625.50;5053765;28;20434;-69
2021/10/06 04:39:15;;;;;;;3.42;1.25;;;;;;;9.94;91.92;100618.16;5053797;28;20043;-69
2021/10/06 04:41:40;;;;;;;5.50;1.50;;;;;;;10.02;91.77;100621.59;5053662;28;20100;-68
2021/10/06 04:44:05;;;;;;;5.80;1.30;;;;;;;10.02;91.32;100616.44;5035687;28;20025;-69
2021/10/06 04:46:31;;;;;;;8.63;1.13;;;;;;;9.91;91.17;100607.41;5053659;28;20456;-68
2021/10/06 04:48:56;;;;;;;7.97;1.33;;;;;;;9.88;91.56;100611.16;5054325;28;20379;-68
2021/10/06 04:51:21;;;;;;;4.05;1.10;;;;;;;9.83;91.67;100610.91;5053484;28;20107;-69
2021/10/06 04:53:47;;;;;;;2.70;1.00;;;;;;;9.88;91.64;100613.72;5053316;28;20434;-68
2021/10/06 04:56:12;;;;;;;7.93;1.42;;;;;;;9.89;91.70;100606.78;5035648;28;20020;-68
2021/10/06 04:58:37;;;;;;;7.20;1.38;;;;;;;9.81;91.58;100618.06;5053385;28;20077;-68
2021/10/06 05:01:03;;;;;;;4.53;1.10;;;;;;;9.84;91.94;100607.34;5053464;28;20024;-68
2021/10/06 05:03:28;;;;;;;8.10;1.23;;;;;;;9.80;91.41;100595.00;5035394;28;20103;-68
2021/10/06 05:05:53;;;;;;;4.95;1.50;;;;;;;9.87;91.22;100601.81;5053375;28;20383;-70
2021/10/06 05:08:19;;;;;;;5.32;1.10;;;;;;;9.87;91.70;100601.03;5053755;28;20500;-69
2021/10/06 05:10:44;;;;;;;6.28;1.35;;;;;;;9.86;92.31;100600.19;5053424;28;20025;-68
2021/10/06 05:13:09;;;;;;;7.13;1.58;;;;;;;9.85;92.29;100601.19;5035619;28;20052;-69
2021/10/06 05:15:34;;;;;;;6.70;1.42;;;;;;;9.93;92.18;100595.91;5053432;28;20021;-69
2021/10/06 05:18:00;;;;;;;6.63;1.55;;;;;;;10.07;92.39;100590.81;5053576;28;20021;-69
2021/10/06 05:20:25;;;;;;;8.85;1.75;;;;;;;10.08;92.44;100589.84;5053431;28;20438;-68
2021/10/06 05:22:50;;;;;;;3.78;1.40;;;;;;;10.04;92.58;100591.19;5053725;28;20124;-68
2021/10/06 05:25:16;;;;;;;3.75;1.52;;;;;;;10.02;92.94;100581.06;5053729;28;20162;-68
2021/10/06 05:27:41;;;;;;;7.50;1.85;;;;;;;10.10;92.65;100605.97;5053424;28;20020;-68
2021/10/06 05:30:09;;;;;;;7.00;1.70;;;;;;;10.00;92.96;100577.09;5053962;28;20031;-68
2021/10/06 05:32:35;;;;;;;11.00;2.00;;;;;;;10.02;93.11;100572.53;5035748;28;20021;-68
2021/10/06 05:35:00;;;;;;;10.52;1.73;;;;;;;10.08;93.24;100582.91;5054002;28;20115;-68
2021/10/06 05:37:26;;;;;;;3.92;1.52;;;;;;;10.19;93.20;100589.34;5055589;28;20060;-68
2021/10/06 05:39:51;;;;;;;9.18;1.80;;;;;;;10.17;92.97;100583.56;5059972;28;20109;-68
2021/10/06 05:42:16;;;;;;;6.43;1.48;;;;;;;10.22;92.70;100578.63;5042962;28;20037;-67
2021/10/06 05:44:42;;;;;;;7.05;2.40;;;;;;;10.37;92.81;100596.63;5061612;28;20029;-68
2021/10/06 05:47:07;;;;;;;6.55;1.70;;;;;;;10.44;92.76;100609.56;5060692;28;20605;-68
2021/10/06 05:49:32;;;;;;;7.70;2.15;;;;;;;10.37;92.55;100607.75;5063385;28;20036;-68
2021/10/06 05:51:58;;;;;;;6.68;1.70;;;;;;;10.46;92.56;100617.94;5061071;28;20025;-69
2021/10/06 05:54:23;;;;;;;6.25;1.73;;;;;;;10.54;92.29;100620.38;5061884;28;20109;-70
2021/10/06 05:56:48;;;;;;;11.48;1.80;;;;;;;10.55;92.41;100603.88;5066625;28;20028;-70
2021/10/06 05:59:14;;;;;;;12.27;2.30;;;;;;;10.59;92.22;100611.06;5070222;28;20033;-69
2021/10/06 06:01:39;;;;;;;9.45;2.00;;;;;;;10.62;92.01;100609.91;5052628;28;20025;-72
2021/10/06 06:04:04;;;;;;;6.95;1.80;;;;;;;10.68;92.13;100614.28;5069559;28;20490;-70
2021/10/06 06:06:30;;;;;;;11.15;2.25;;;;;;;10.74;91.88;100623.88;5069143;28;20080;-71
2021/10/06 06:08:55;;;;;;;14.95;2.30;;;;;;;10.70;92.24;100635.56;5071273;28;20083;-71
2021/10/06 06:11:22;;;;;;;14.27;2.17;;;;;;;10.78;91.86;100638.00;5052486;28;20025;-71
2021/10/06 06:13:48;;;;;;;8.73;2.13;;;;;;;10.84;91.45;100633.84;5051460;28;20391;-71
2021/10/06 06:16:13;;;;;;;12.27;1.90;;;;;;;10.89;91.86;100649.59;5069202;28;20037;-71
2021/10/06 06:18:39;;;;;;;14.13;2.00;;;;;;;10.94;90.88;100646.44;5061772;28;20092;-70
2021/10/06 06:21:04;;;;;;;9.45;1.65;;;;;;;10.97;90.53;100658.97;5059523;28;20071;-68
2021/10/06 06:23:31;;;;;;;8.65;1.88;;;;;;;11.01;89.91;100666.13;5059226;28;20025;-68
2021/10/06 06:25:56;;;;;;;11.82;1.70;;;;;;;10.94;90.38;100657.56;5043009;28;20075;-69
2021/10/06 06:28:22;;;;;;;12.57;2.40;;;;;;;10.92;90.13;100672.47;5059576;28;20024;-69
2021/10/06 06:30:47;;;;;;;6.97;1.45;;;;;;;10.93;89.24;100674.06;5058847;28;20039;-70
2021/10/06 06:33:12;;;;;;;7.07;1.30;;;;;;;10.96;89.45;100678.03;5057843;28;20460;-69
2021/10/06 06:35:38;;;;;;;10.02;1.50;;;;;;;10.78;89.64;100669.00;5058185;28;20025;-70
2021/10/06 06:38:03;;;;;;;9.43;1.55;;;;;;;10.80;90.18;100674.78;5058142;28;20032;-68
2021/10/06 06:40:28;;;;;;;4.47;1.50;;;;;;;10.78;89.33;100681.13;5058087;28;20036;-69
2021/10/06 06:42:54;;;;;;;10.70;1.70;;;;;;;10.84;89.46;100683.75;5039177;28;20423;-69
2021/10/06 06:45:19;;;;;;;6.30;1.48;;;;;;;10.79;90.08;100683.53;5056557;28;20037;-69
2021/10/06 06:47:44;;;;;;;3.83;0.90;;;;;;;10.85;89.42;100692.31;5056202;28;20043;-69
2021/10/06 06:50:12;;;;;;;2.70;0.88;;;;;;;10.86;89.02;100687.94;5055399;28;20067;-69
2021/10/06 06:52:38;;;;;;;6.32;1.10;;;;;;;10.81;89.40;100694.47;5056075;28;20032;-69
2021/10/06 06:55:03;;;;;;;4.70;1.08;;;;;;;10.64;89.27;100677.66;5055655;28;20127;-68
2021/10/06 06:57:29;;;;;;;3.85;1.00;;;;;;;10.93;88.53;100697.31;5056384;28;20028;-68
2021/10/06 06:59:54;;;;;;;3.75;0.90;;;;;;;11.04;88.09;100706.34;5056013;28;20057;-68
2021/10/06 07:02:19;;;;;;;5.72;1.00;;;;;;;10.79;88.32;100693.88;5056212;28;20025;-69
2021/10/06 07:04:44;;;;;;;2.97;0.90;;;;;;;10.77;89.29;100719.13;5056258;28;20028;-68
2021/10/06 07:07:14;;;;;;;5.05;0.95;;;;;;;10.70;90.11;100725.22;5055984;28;20531;-68
2021/10/06 07:09:47;;;;;;;5.95;1.15;;;;;;;10.76;90.06;100724.47;5038202;28;20479;-69
2021/10/06 07:12:17;;;;;;;2.95;1.05;;;;;;;10.72;90.13;100725.84;5038060;28;20437;-69
2021/10/06 07:14:43;;;;;;;7.00;1.08;;;;;;;10.64;90.11;100723.41;5055677;28;20029;-68
2021/10/06 07:17:09;;;;;;;6.25;1.13;;;;;;;10.65;90.37;100723.22;5037715;28;20471;-69
2021/10/06 07:19:36;;;;;;;5.35;1.20;;;;;;;10.58;91.20;100728.31;5055817;28;20031;-70
2021/10/06 07:22:05;;;;;;;9.13;1.23;;;;;;;10.65;91.13;100741.31;5055504;28;20060;-69
2021/10/06 07:24:31;;;;;;;6.35;1.27;;;;;;;10.68;90.86;100734.97;5055417;28;20108;-70
2021/10/06 07:26:59;;;;;;;2.95;1.20;;;;;;;10.68;90.35;100743.50;5055595;28;20036;-68
2021/10/06 07:29:24;;;;;;;4.93;1.10;;;;;;;10.59;88.74;100748.03;5055413;28;20025;-68
2021/10/06 07:31:49;;;;;;;6.15;1.42;;;;;;;10.66;88.73;100749.84;5055225;28;20387;-68
2021/10/06 07:34:14;;;;;;;4.07;0.95;;;;;;;10.60;89.62;100756.56;5055417;28;20028;-68
2021/10/06 07:36:40;;;;;;;2.97;0.80;;;;;;;10.64;88.78;100760.38;5055070;28;20025;-68
2021/10/06 07:39:08;;;;;;;3.20;0.80;;;;;;;10.61;88.27;100748.63;5055067;28;20031;-68
2021/10/06 07:41:33;;;;;;;4.80;1.17;;;;;;;10.80;88.76;100759.31;5054924;28;20380;-67
2021/10/06 07:43:58;;;;;;;6.50;1.25;;;;;;;10.73;90.46;100743.75;5054767;28;20029;-68
2021/10/06 07:46:24;;;;;;;3.88;1.13;;;;;;;10.71;90.42;100750.91;5056042;28;20155;-69
2021/10/06 07:48:50;;;;;;;6.25;1.13;;;;;;;10.66;90.97;100757.59;5054758;28;20025;-68
2021/10/06 07:51:16;;;;;;;3.35;0.90;;;;;;;10.86;91.42;100788.78;5054703;28;20387;-70
2021/10/06 07:53:41;;;;;;;4.05;1.58;;;;;;;10.84;90.48;100788.94;5054942;28;20124;-69
2021/10/06 07:56:06;;;;;;;5.70;1.10;;;;;;;10.91;90.56;100787.22;5036784;28;20442;-69
2021/10/06 07:58:32;;;;;;;3.55;1.00;;;;;;;11.00;90.81;100791.25;5054563;28;20116;-69
2021/10/06 08:00:57;;;;;;;5.03;1.33;;;;;;;11.08;90.34;100782.56;5054279;28;20025;-69
2021/10/06 08:03:22;;;;;;;3.25;1.00;;;;;;;11.19;90.15;100776.84;5036499;28;20520;-69
2021/10/06 08:05:47;;;;;;;4.88;1.30;;;;;;;11.20;90.14;100775.06;5054486;28;20029;-69
2021/10/06 08:08:14;;;;;;;6.78;1.58;;;;;;;11.34;89.82;100778.53;5054296;28;20021;-69
2021/10/06 08:10:39;;;;;;;5.90;1.38;;;;;;;11.45;90.07;100788.31;5054337;28;20052;-69
2021/10/06 08:13:04;;;;;;;6.28;1.67;;;;;;;12.16;87.96;100800.94;5054260;28;20029;-69
2021/10/06 08:15:32;;;;;;;6.65;1.17;;;;;;;13.73;81.49;100809.75;5054412;28;20035;-69
2021/10/06 08:17:57;;;;;;;4.10;1.20;;;;;;;17.82;64.91;100797.16;5055135;28;20033;-69
2021/10/06 08:20:23;;;;;;;5.25;1.23;;;;;;;15.24;74.12;100801.00;5036192;28;20025;-70
2021/10/06 08:22:48;;;;;;;5.95;1.38;;;;;;;14.02;78.61;100812.81;5054585;28;20052;-69
2021/10/06 08:25:13;;;;;;;5.32;1.40;;;;;;;16.45;69.30;100814.09;5054652;28;20116;-70
2021/10/06 08:27:39;;;;;;;4.25;1.40;;;;;;;20.32;60.65;100832.94;5054764;28;20047;-69
2021/10/06 08:30:05;;;;;;;5.18;1.45;;;;;;;21.12;55.43;100837.16;5054845;28;20132;-70
2021/10/06 08:32:30;;;;;;;7.45;1.75;;;;;;;20.42;57.71;100840.88;5054583;28;20028;-69
2021/10/06 08:34:55;;;;;;;7.37;1.60;;;;;;;22.57;52.23;100837.19;5053836;28;20101;-70
2021/10/06 08:37:21;;;;;;;7.60;1.80;;;;;;;22.09;52.53;100847.16;5053805;28;20274;-70
2021/10/06 08:39:46;;;;;;;7.18;1.80;;;;;;;22.16;54.15;100849.56;5053775;28;20276;-70
2021/10/06 08:42:12;;;;;;;6.38;1.85;;;;;;;17.10;68.89;100847.19;5054419;28;20032;-69
2021/10/06 08:44:39;;;;;;;10.20;1.95;;;;;;;16.97;69.51;100855.22;5053748;28;20391;-69
2021/10/06 08:47:05;;;;;;;8.50;1.77;;;;;;;15.67;73.85;100857.44;5053920;28;20017;-68
2021/10/06 08:49:32;;;;;;;7.30;2.20;;;;;;;15.22;75.39;100867.31;5054018;28;20068;-68
2021/10/06 08:51:57;;;;;;;10.02;1.92;;;;;;;15.48;74.38;100871.50;5053742;28;20033;-68
2021/10/06 08:54:22;;;;;;;11.73;1.60;;;;;;;17.46;67.24;100874.03;5053459;28;20037;-68
2021/10/06 08:56:49;;;;;;;5.72;1.40;;;;;;;16.72;70.37;100874.50;5035704;28;20075;-68
2021/10/06 08:59:14;;;;;;;8.93;1.75;;;;;;;16.81;70.24;100881.00;5053537;28;20104;-69
2021/10/06 09:01:45;;;;;;;5.80;1.38;;;;;;;15.32;74.83;100893.66;5035813;28;20126;-69
2021/10/06 09:04:11;;;;;;;10.75;2.05;;;;;;;14.27;79.80;100896.00;5053898;28;20035;-68
2021/10/06 09:06:41;;;;;;;3.50;1.10;;;;;;;13.73;81.17;100900.66;5055434;28;20444;-69
2021/10/06 09:09:34;;;;;;;11.93;1.90;;;;;;;13.77;81.47;100901.81;5036004;28;20024;-69
2021/10/06 09:12:00;;;;;;;7.70;1.80;;;;;;;13.61;82.01;100899.66;5049911;28;20056;-71
2021/10/06 09:14:29;;;;;;;8.45;1.85;;;;;;;14.16;81.30;100907.88;5053149;28;20108;-69
2021/10/06 09:17:06;;;;;;;6.20;1.40;;;;;;;20.93;57.22;100912.16;5053229;28;20112;-69
2021/10/06 09:19:46;;;;;;;9.45;1.90;;;;;;;22.53;53.54;100923.84;5053281;28;20545;-70
2021/10/06 09:22:15;;;;;;;8.77;1.80;;;;;;;18.88;63.10;100927.41;5053358;28;20070;-70
2021/10/06 09:24:53;;;;;;;7.80;1.63;;;;;;;21.27;54.25;100932.88;5053254;28;20025;-70
2021/10/06 09:27:28;;;;;;;9.27;2.03;;;;;;;19.80;59.30;100934.72;5054053;28;20035;-70
2021/10/06 09:29:56;;;;;;;8.18;1.90;;;;;;;25.09;45.40;100942.97;5053257;28;20479;-70
2021/10/06 09:32:27;;;;;;;6.63;1.90;;;;;;;25.12;46.43;100951.16;5053171;28;20490;-70
2021/10/06 09:35:19;;;;;;;7.30;1.98;;;;;;;28.21;38.45;100941.34;5053177;28;20025;-71
2021/10/06 09:37:55;;;;;;;7.03;1.50;;;;;;;21.08;54.59;100938.53;5053105;28;20021;-70
2021/10/06 09:40:23;;;;;;;5.55;1.58;;;;;;;17.23;67.39;100955.81;5035164;28;20029;-69
2021/10/06 09:43:05;;;;;;;8.65;1.92;;;;;;;15.51;75.93;100972.63;5053093;28;20024;-69
2021/10/06 09:45:35;;;;;;;10.63;2.20;;;;;;;15.12;77.95;100964.91;5035041;28;20025;-69
2021/10/06 09:48:12;;;;;;;12.50;2.22;;;;;;;14.88;79.91;100974.31;5053161;28;20024;-69
2021/10/06 09:50:46;;;;;;;6.85;1.77;;;;;;;14.56;81.81;100985.72;5053020;28;20476;-69
2021/10/06 09:53:23;;;;;;;10.88;1.95;;;;;;;14.29;83.30;100988.38;5052794;28;20095;-68
2021/10/06 09:55:51;;;;;;;8.02;2.05;;;;;;;14.16;83.44;100991.84;5052899;28;20021;-69
2021/10/06 09:58:18;;;;;;;9.68;2.08;;;;;;;13.87;85.33;101000.13;5035021;28;20023;-68
2021/10/06 10:00:45;;;;;;;10.55;1.85;;;;;;;13.60;85.10;100991.56;5052822;28;20079;-69
2021/10/06 10:03:11;;;;;;;8.90;1.48;;;;;;;13.38;84.45;100993.56;5052815;28;20060;-68
2021/10/06 10:05:39;;;;;;;7.25;1.40;;;;;;;13.27;85.20;101000.94;5052752;28;20102;-69
2021/10/06 10:08:06;;;;;;;5.68;1.45;;;;;;;13.19;85.03;101002.91;5052927;28;20024;-68
2021/10/06 10:10:33;;;;;;;8.68;1.30;;;;;;;13.20;86.19;101009.69;5052805;28;20075;-68
2021/10/06 10:12:59;;;;;;;8.05;1.73;;;;;;;13.19;86.42;101010.69;5053217;28;20021;-69
2021/10/06 10:15:24;;;;;;;6.30;1.58;;;;;;;13.50;85.56;101012.75;5034762;28;20028;-69
2021/10/06 10:17:54;;;;;;;6.30;1.52;;;;;;;13.96;84.49;101019.69;5052861;28;20017;-69
2021/10/06 10:20:21;;;;;;;6.20;1.45;;;;;;;14.57;80.36;101024.50;5052722;28;20025;-69
2021/10/06 10:22:55;;;;;;;6.28;1.48;;;;;;;14.92;80.42;101029.31;5052612;28;20096;-68
2021/10/06 10:25:22;;;;;;;5.13;1.55;;;;;;;15.65;76.39;101038.41;5054502;28;20079;-69
2021/10/06 10:28:01;;;;;;;4.75;1.00;;;;;;;15.65;77.59;101036.63;5038280;28;20068;-69
2021/10/06 10:30:28;;;;;;;5.88;1.33;;;;;;;15.61;77.50;101038.03;5056779;28;20025;-69
2021/10/06 10:32:54;;;;;;;7.25;1.60;;;;;;;15.75;77.88;101042.16;5056152;28;20025;-68
2021/10/06 10:35:34;;;;;;;4.55;1.20;;;;;;;15.34;78.88;101053.88;5056006;28;20105;-68
2021/10/06 10:38:00;;;;;;;6.80;1.08;;;;;;;14.78;81.17;101066.81;5055977;28;20031;-68
2021/10/06 10:40:34;;;;;;;8.97;1.30;;;;;;;14.49;82.81;101065.50;5056490;28;20107;-69
2021/10/06 10:43:06;;;;;;;7.32;1.40;;;;;;;14.43;83.78;101077.53;5055887;28;20709;-69
2021/10/06 10:45:40;;;;;;;6.97;1.25;;;;;;;14.29;82.27;101068.97;5038296;28;20063;-69
2021/10/06 10:48:07;;;;;;;5.72;1.30;;;;;;;14.30;83.62;101080.97;5056073;28;20352;-69
2021/10/06 10:50:38;;;;;;;4.68;1.20;;;;;;;14.27;83.31;101094.38;5056133;28;20021;-69
2021/10/06 10:53:03;;;;;;;5.20;1.98;;;;;;;14.33;82.49;101097.97;5055616;28;20031;-68
2021/10/06 10:55:55;;;;;;;4.93;1.80;;;;;;;14.58;80.95;101105.91;5056170;28;20108;-69
2021/10/06 10:58:31;;;;;;;6.55;1.70;;;;;;;14.89;79.41;101095.59;5055646;28;20032;-69
2021/10/06 11:00:57;;;;;;;5.57;1.55;;;;;;;15.65;77.36;101099.13;5055600;28;20079;-69
2021/10/06 11:03:23;;;;;;;5.38;1.20;;;;;;;17.03;75.57;101104.94;5056415;28;20033;-70
2021/10/06 11:05:50;;;;;;;4.05;1.20;;;;;;;17.56;72.56;101089.31;5056469;28;20463;-69
2021/10/06 11:08:26;;;;;;;3.78;1.20;;;;;;;17.87;73.25;101094.47;5037623;28;20029;-70
2021/10/06 11:11:09;;;;;;;5.22;1.20;;;;;;;17.72;72.39;101093.06;5055680;28;20021;-69
2021/10/06 11:13:37;;;;;;;5.13;1.20;;;;;;;17.44;72.21;101098.94;5055377;28;20029;-69
2021/10/06 11:16:03;;;;;;;6.47;1.35;;;;;;;16.76;75.19;101100.06;5055325;28;20463;-67
2021/10/06 11:18:41;;;;;;;7.38;1.38;;;;;;;16.14;76.99;101107.13;5055826;28;20016;-69
2021/10/06 11:21:07;;;;;;;7.95;1.52;;;;;;;16.00;76.65;101107.28;5055438;28;20539;-69
2021/10/06 11:23:35;;;;;;;4.05;0.82;;;;;;;15.78;75.27;101119.88;5055630;28;20096;-69
2021/10/06 11:29:23;;;;;;;6.68;1.48;;;;;;;17.19;70.43;101106.16;5055346;28;20051;-68